createdAt,value
2023-05-03T00:02:10.988Z,19.03
2023-05-03T00:04:38.692Z,19.03
2023-05-03T00:07:05.603Z,19.02
2023-05-03T00:09:35.599Z,19.00
2023-05-03T00:12:02.955Z,18.99
2023-05-03T00:14:30.389Z,18.95
2023-05-03T00:16:58.101Z,18.90
2023-05-03T00:19:31.740Z,18.91
2023-05-03T00:21:59.742Z,18.92
2023-05-03T00:24:27.591Z,18.87
2023-05-03T00:26:54.697Z,18.88
2023-05-03T00:29:23.054Z,18.87
2023-05-03T00:31:50.169Z,18.86
2023-05-03T00:34:17.209Z,18.87
2023-05-03T00:36:44.181Z,18.86
2023-05-03T00:39:11.647Z,18.81
2023-05-03T00:41:39.834Z,18.80
2023-05-03T00:44:06.982Z,18.75
2023-05-03T00:46:35.306Z,18.75
2023-05-03T00:49:02.514Z,18.73
2023-05-03T00:51:29.527Z,18.72
2023-05-03T00:53:56.979Z,18.68
2023-05-03T00:56:24.209Z,18.66
2023-05-03T00:58:54.747Z,18.66
2023-05-03T01:01:22.265Z,18.67
2023-05-03T01:03:50.706Z,18.66
2023-05-03T01:06:17.827Z,18.64
2023-05-03T01:08:55.631Z,18.63
2023-05-03T01:11:48.315Z,18.61
2023-05-03T01:14:28.882Z,18.57
2023-05-03T01:17:06.190Z,18.47
2023-05-03T01:19:44.429Z,18.48
2023-05-03T01:22:12.206Z,18.48
2023-05-03T01:24:42.573Z,18.48
2023-05-03T01:27:09.594Z,18.45
2023-05-03T01:29:36.540Z,18.46
2023-05-03T01:32:09.353Z,18.45
2023-05-03T01:34:49.248Z,18.41
2023-05-03T01:37:17.521Z,18.39
2023-05-03T01:40:01.734Z,18.38
2023-05-03T01:42:30.826Z,18.35
2023-05-03T01:44:58.935Z,18.32
2023-05-03T01:47:27.963Z,18.33
2023-05-03T01:49:54.888Z,18.34
2023-05-03T01:52:21.905Z,18.31
2023-05-03T01:54:48.843Z,18.33
2023-05-03T01:57:15.987Z,18.32
2023-05-03T01:59:42.926Z,18.30
2023-05-03T02:02:09.913Z,18.33
2023-05-03T02:04:36.963Z,18.33
2023-05-03T02:07:04.048Z,18.31
2023-05-03T02:09:31.000Z,18.32
2023-05-03T02:11:57.903Z,18.32
2023-05-03T02:14:24.967Z,18.30
2023-05-03T02:16:52.092Z,18.28
2023-05-03T02:19:19.230Z,18.26
2023-05-03T02:21:46.124Z,18.28
2023-05-03T02:24:13.486Z,18.27
2023-05-03T02:26:40.830Z,18.27
2023-05-03T02:29:10.097Z,18.24
2023-05-03T02:31:37.234Z,18.22
2023-05-03T02:34:05.161Z,18.19
2023-05-03T02:36:32.263Z,18.13
2023-05-03T02:39:01.452Z,18.15
2023-05-03T02:41:28.851Z,18.10
2023-05-03T02:43:56.558Z,18.06
2023-05-03T02:46:26.530Z,18.06
2023-05-03T02:48:53.866Z,18.00
2023-05-03T02:51:21.103Z,17.98
2023-05-03T02:53:48.309Z,17.96
2023-05-03T02:56:15.247Z,17.92
2023-05-03T02:58:42.252Z,17.90
2023-05-03T03:01:10.963Z,17.86
2023-05-03T03:03:38.098Z,17.81
2023-05-03T03:06:05.476Z,17.76
2023-05-03T03:08:36.534Z,17.69
2023-05-03T03:11:05.636Z,17.68
2023-05-03T03:13:33.505Z,17.64
2023-05-03T03:16:02.053Z,17.62
2023-05-03T03:18:29.345Z,17.56
2023-05-03T03:20:56.260Z,17.42
2023-05-03T03:23:23.419Z,17.46
2023-05-03T03:25:51.253Z,17.40
2023-05-03T03:28:19.171Z,17.33
2023-05-03T03:30:46.981Z,17.35
2023-05-03T03:33:24.438Z,17.31
2023-05-03T03:35:54.572Z,17.30
2023-05-03T03:38:25.966Z,17.28
2023-05-03T03:40:59.125Z,17.25
2023-05-03T03:43:26.484Z,17.25
2023-05-03T03:45:54.228Z,17.26
2023-05-03T03:48:23.472Z,17.24
2023-05-03T03:50:51.252Z,17.22
2023-05-03T03:53:20.882Z,17.14
2023-05-03T03:55:48.516Z,17.17
2023-05-03T03:58:17.555Z,17.15
2023-05-03T04:00:45.418Z,17.11
2023-05-03T04:03:17.015Z,17.11
2023-05-03T04:05:44.010Z,17.11
2023-05-03T04:08:11.033Z,17.07
2023-05-03T04:10:39.801Z,17.05
2023-05-03T04:13:07.153Z,17.04
2023-05-03T04:15:34.596Z,17.02
2023-05-03T04:18:03.843Z,16.99
2023-05-03T04:20:31.894Z,16.97
2023-05-03T04:23:01.460Z,16.94
2023-05-03T04:25:33.424Z,16.93
2023-05-03T04:28:06.979Z,16.92
2023-05-03T04:30:36.269Z,16.88
2023-05-03T04:33:04.353Z,16.85
2023-05-03T04:35:34.303Z,16.81
2023-05-03T04:38:06.095Z,16.79
2023-05-03T04:40:34.388Z,16.74
2023-05-03T04:43:06.335Z,16.69
2023-05-03T04:45:38.100Z,16.70
2023-05-03T04:48:07.139Z,16.72
2023-05-03T04:50:34.422Z,16.72
2023-05-03T04:53:02.225Z,16.73
2023-05-03T04:55:31.012Z,16.74
2023-05-03T04:57:59.363Z,16.70
2023-05-03T05:00:26.356Z,16.74
2023-05-03T05:02:59.378Z,16.75
2023-05-03T05:05:29.304Z,16.75
2023-05-03T05:07:58.443Z,16.78
2023-05-03T05:10:28.627Z,16.81
2023-05-03T05:12:56.753Z,16.81
2023-05-03T05:15:24.147Z,16.84
2023-05-03T05:17:51.683Z,16.86
2023-05-03T05:20:20.345Z,16.87
2023-05-03T05:22:49.887Z,16.90
2023-05-03T05:25:16.989Z,16.89
2023-05-03T05:27:44.266Z,16.91
2023-05-03T05:30:11.468Z,16.92
2023-05-03T05:32:41.024Z,16.92
2023-05-03T05:35:11.119Z,16.86
2023-05-03T05:37:38.643Z,16.88
2023-05-03T05:40:07.945Z,16.93
2023-05-03T05:42:42.785Z,16.95
2023-05-03T05:45:10.523Z,16.92
2023-05-03T05:47:38.787Z,16.96
2023-05-03T05:50:15.281Z,17.04
2023-05-03T05:52:46.923Z,17.08
2023-05-03T05:55:16.031Z,17.17
2023-05-03T05:57:44.950Z,17.23
2023-05-03T06:00:17.559Z,17.40
2023-05-03T06:02:45.850Z,18.18
2023-05-03T06:05:16.968Z,19.23
2023-05-03T06:07:44.206Z,20.10
2023-05-03T06:10:11.536Z,21.23
2023-05-03T06:12:41.032Z,22.15
2023-05-03T06:15:14.107Z,23.12
2023-05-03T06:17:41.461Z,23.98
2023-05-03T06:20:14.571Z,24.84
2023-05-03T06:22:42.522Z,25.58
2023-05-03T06:25:14.086Z,26.28
2023-05-03T06:27:44.132Z,26.95
2023-05-03T06:30:12.410Z,27.63
2023-05-03T06:32:42.335Z,28.18
2023-05-03T06:35:10.266Z,28.76
2023-05-03T06:37:39.182Z,29.35
2023-05-03T06:40:07.968Z,29.88
2023-05-03T06:42:36.991Z,30.34
2023-05-03T06:45:14.059Z,30.79
2023-05-03T06:47:42.913Z,31.28
2023-05-03T06:50:14.050Z,31.54
2023-05-03T06:52:41.432Z,32.21
2023-05-03T06:55:09.531Z,32.61
2023-05-03T06:57:36.500Z,32.92
2023-05-03T07:00:07.491Z,33.37
2023-05-03T07:02:34.955Z,33.40
2023-05-03T07:05:02.141Z,33.78
2023-05-03T07:07:29.160Z,34.04
2023-05-03T07:09:56.120Z,34.59
2023-05-03T07:12:27.756Z,35.17
2023-05-03T07:14:55.719Z,35.38
2023-05-03T07:17:23.330Z,35.78
2023-05-03T07:19:51.599Z,36.10
2023-05-03T07:22:21.382Z,36.35
2023-05-03T07:24:48.449Z,36.52
2023-05-03T07:27:15.686Z,36.91
2023-05-03T07:29:42.635Z,37.32
2023-05-03T07:32:09.574Z,37.31
2023-05-03T07:34:36.558Z,37.82
2023-05-03T07:37:04.184Z,38.25
2023-05-03T07:39:31.250Z,38.54
2023-05-03T07:41:58.214Z,38.81
2023-05-03T07:44:25.324Z,39.09
2023-05-03T07:46:52.420Z,39.27
2023-05-03T07:49:19.382Z,39.72
2023-05-03T07:51:46.350Z,40.02
2023-05-03T07:54:13.372Z,40.33
2023-05-03T07:56:40.346Z,40.61
2023-05-03T07:59:10.308Z,40.94
2023-05-03T08:01:38.133Z,41.14
2023-05-03T08:04:05.729Z,41.34
2023-05-03T08:06:33.552Z,41.38
2023-05-03T08:09:00.953Z,41.33
2023-05-03T08:11:29.345Z,40.81
2023-05-03T08:13:56.891Z,41.04
2023-05-03T08:16:23.986Z,41.28
2023-05-03T08:18:51.774Z,41.64
2023-05-03T08:21:19.259Z,41.95
2023-05-03T08:23:46.523Z,42.20
2023-05-03T08:26:14.777Z,41.96
2023-05-03T08:28:42.245Z,40.90
2023-05-03T08:31:09.775Z,39.08
2023-05-03T08:33:37.178Z,38.28
2023-05-03T08:36:04.488Z,36.79
2023-05-03T08:38:31.600Z,37.10
2023-05-03T08:40:59.839Z,36.28
2023-05-03T08:43:28.827Z,35.18
2023-05-03T08:45:56.275Z,35.24
2023-05-03T08:48:23.828Z,33.66
2023-05-03T08:50:52.237Z,33.22
2023-05-03T08:53:19.470Z,32.41
2023-05-03T08:55:46.413Z,32.70
2023-05-03T08:58:13.751Z,32.47
2023-05-03T09:00:45.495Z,32.44
2023-05-03T09:03:13.277Z,32.96
2023-05-03T09:05:44.335Z,33.25
2023-05-03T09:08:17.266Z,33.27
2023-05-03T09:10:44.545Z,33.28
2023-05-03T09:13:12.222Z,32.92
2023-05-03T09:15:39.301Z,32.77
2023-05-03T09:18:16.207Z,32.16
2023-05-03T09:20:51.805Z,31.56
2023-05-03T09:23:28.816Z,31.53
2023-05-03T09:25:56.154Z,31.39
2023-05-03T09:28:23.802Z,31.48
2023-05-03T09:31:03.988Z,30.90
2023-05-03T09:33:30.948Z,30.47
2023-05-03T09:36:03.490Z,29.59
2023-05-03T09:38:36.946Z,29.13
2023-05-03T09:41:06.881Z,28.29
2023-05-03T09:43:36.017Z,28.04
2023-05-03T09:46:10.845Z,27.13
2023-05-03T09:48:39.451Z,27.16
2023-05-03T09:51:07.235Z,26.95
2023-05-03T09:53:37.924Z,26.32
2023-05-03T09:56:09.076Z,26.13
2023-05-03T09:58:36.540Z,25.92
2023-05-03T10:01:03.591Z,25.32
2023-05-03T10:03:41.545Z,25.11
2023-05-03T10:06:23.288Z,25.10
2023-05-03T10:08:55.035Z,24.96
2023-05-03T10:11:26.907Z,24.95
2023-05-03T10:13:55.924Z,25.28
2023-05-03T10:16:50.758Z,25.55
2023-05-03T10:19:28.075Z,25.77
2023-05-03T10:22:07.940Z,25.21
2023-05-03T10:25:03.410Z,24.76
2023-05-03T10:27:51.951Z,25.08
2023-05-03T10:30:32.727Z,25.30
2023-05-03T10:33:00.679Z,25.41
2023-05-03T10:35:29.728Z,25.42
2023-05-03T10:37:57.222Z,24.66
2023-05-03T10:40:24.736Z,24.44
2023-05-03T10:42:56.535Z,24.33
2023-05-03T10:45:28.834Z,24.29
2023-05-03T10:48:25.824Z,24.86
2023-05-03T10:50:53.133Z,24.79
2023-05-03T10:53:41.328Z,25.02
2023-05-03T10:56:13.742Z,25.21
2023-05-03T10:58:45.497Z,25.28
2023-05-03T11:01:20.258Z,25.39
2023-05-03T11:04:08.509Z,25.42
2023-05-03T11:06:46.134Z,25.49
2023-05-03T11:09:15.055Z,25.59
2023-05-03T11:11:42.621Z,25.67
2023-05-03T11:14:10.434Z,25.78
2023-05-03T11:16:40.771Z,25.77
2023-05-03T11:19:08.123Z,25.83
2023-05-03T11:21:35.170Z,25.99
2023-05-03T11:24:02.555Z,26.06
2023-05-03T11:26:35.208Z,26.09
2023-05-03T11:29:02.168Z,26.23
2023-05-03T11:31:29.258Z,26.20
2023-05-03T11:33:56.696Z,26.19
2023-05-03T11:36:23.595Z,26.20
2023-05-03T11:38:50.588Z,26.19
2023-05-03T11:41:18.247Z,26.21
2023-05-03T11:43:47.641Z,26.30
2023-05-03T11:46:22.204Z,25.98
2023-05-03T11:48:49.352Z,26.09
2023-05-03T11:51:22.507Z,26.11
2023-05-03T11:53:49.967Z,26.17
2023-05-03T11:56:20.417Z,26.35
2023-05-03T11:58:58.808Z,26.53
2023-05-03T12:01:28.426Z,26.35
2023-05-03T12:04:02.654Z,26.21
2023-05-03T12:06:34.207Z,26.19
2023-05-03T12:09:04.380Z,26.16
2023-05-03T12:11:44.809Z,26.18
2023-05-03T12:14:12.768Z,26.14
2023-05-03T12:16:50.835Z,26.14
2023-05-03T12:19:33.459Z,26.28
2023-05-03T12:22:18.079Z,26.26
2023-05-03T12:24:49.788Z,26.17
2023-05-03T12:27:19.272Z,26.03
2023-05-03T12:29:47.634Z,25.78
2023-05-03T12:32:15.214Z,25.70
2023-05-03T12:34:42.997Z,25.51
2023-05-03T12:37:16.763Z,25.66
2023-05-03T12:39:46.402Z,25.67
2023-05-03T12:42:20.648Z,25.66
2023-05-03T12:44:50.594Z,25.52
2023-05-03T12:47:28.039Z,25.44
2023-05-03T12:49:59.691Z,25.43
2023-05-03T12:54:56.927Z,25.26
2023-05-03T12:57:24.626Z,25.19
2023-05-03T13:00:02.181Z,25.05
2023-05-03T13:05:01.161Z,24.94
2023-05-03T13:07:31.150Z,24.77
2023-05-03T13:12:33.551Z,24.62
2023-05-03T13:15:02.900Z,24.54
2023-05-03T13:17:31.711Z,24.42
2023-05-03T13:19:58.609Z,24.53
2023-05-03T13:22:25.695Z,24.39
2023-05-03T13:24:52.544Z,24.54
2023-05-03T13:27:19.517Z,24.39
2023-05-03T13:29:49.172Z,24.37
2023-05-03T13:32:17.055Z,24.21
2023-05-03T13:34:44.667Z,24.32
2023-05-03T13:37:12.165Z,24.23
2023-05-03T13:39:39.093Z,24.19
2023-05-03T13:42:06.281Z,24.15
2023-05-03T13:44:33.339Z,23.98
2023-05-03T13:47:00.295Z,24.14
2023-05-03T13:49:27.289Z,24.14
2023-05-03T13:51:54.645Z,24.24
2023-05-03T13:54:21.583Z,24.23
2023-05-03T13:56:48.628Z,24.25
2023-05-03T13:59:16.556Z,24.18
2023-05-03T14:01:43.825Z,23.96
2023-05-03T14:04:11.042Z,23.90
2023-05-03T14:06:40.798Z,23.88
2023-05-03T14:09:08.979Z,23.90
2023-05-03T14:11:36.224Z,23.97
2023-05-03T14:14:03.776Z,23.81
2023-05-03T14:16:41.057Z,23.81
2023-05-03T14:19:12.596Z,23.84
2023-05-03T14:21:43.235Z,23.83
2023-05-03T14:24:10.615Z,23.80
2023-05-03T14:26:38.034Z,23.84
2023-05-03T14:29:06.025Z,23.78
2023-05-03T14:31:34.390Z,23.75
2023-05-03T14:34:01.500Z,23.71
2023-05-03T14:36:36.506Z,23.58
2023-05-03T14:39:04.368Z,23.41
2023-05-03T14:41:33.548Z,23.40
2023-05-03T14:44:01.129Z,23.44
2023-05-03T14:46:28.305Z,23.53
2023-05-03T14:48:55.763Z,23.38
2023-05-03T14:51:22.813Z,23.38
2023-05-03T14:53:49.776Z,23.52
2023-05-03T14:56:16.742Z,23.45
2023-05-03T14:58:43.768Z,23.32
2023-05-03T15:01:18.414Z,23.34
2023-05-03T15:03:45.753Z,23.46
2023-05-03T15:06:12.710Z,23.37
2023-05-03T15:08:39.941Z,23.60
2023-05-03T15:11:08.004Z,23.58
2023-05-03T15:13:35.372Z,23.60
2023-05-03T15:16:02.417Z,23.58
2023-05-03T15:18:29.538Z,23.56
2023-05-03T15:20:56.837Z,23.53
2023-05-03T15:23:23.857Z,23.49
2023-05-03T15:25:51.269Z,23.55
2023-05-03T15:28:18.180Z,23.57
2023-05-03T15:30:45.064Z,23.41
2023-05-03T15:33:12.374Z,23.48
2023-05-03T15:35:40.833Z,23.34
2023-05-03T15:38:08.636Z,23.25
2023-05-03T15:40:36.044Z,23.23
2023-05-03T15:43:03.074Z,23.24
2023-05-03T15:45:30.117Z,23.30
2023-05-03T15:47:57.175Z,23.30
2023-05-03T15:50:24.230Z,23.40
2023-05-03T15:52:51.217Z,23.37
2023-05-03T15:55:19.324Z,23.41
2023-05-03T15:57:46.648Z,23.44
2023-05-03T16:00:18.058Z,23.36
2023-05-03T16:02:45.016Z,23.33
2023-05-03T16:05:12.040Z,23.30
2023-05-03T16:07:39.139Z,23.24
2023-05-03T16:10:07.881Z,23.28
2023-05-03T16:12:35.561Z,23.35
2023-05-03T16:15:02.999Z,23.26
2023-05-03T16:17:29.981Z,23.35
2023-05-03T16:19:57.219Z,23.25
2023-05-03T16:22:24.131Z,23.16
2023-05-03T16:24:51.372Z,23.19
2023-05-03T16:27:18.395Z,23.20
2023-05-03T16:29:45.308Z,23.31
2023-05-03T16:32:12.447Z,23.34
2023-05-03T16:34:39.502Z,23.36
2023-05-03T16:37:06.498Z,23.40
2023-05-03T16:39:33.397Z,23.39
2023-05-03T16:42:01.184Z,23.35
2023-05-03T16:44:28.291Z,23.38
2023-05-03T16:46:55.289Z,23.42
2023-05-03T16:49:22.432Z,23.43
2023-05-03T16:51:49.454Z,23.38
2023-05-03T16:54:17.095Z,23.28
2023-05-03T16:56:44.572Z,23.37
2023-05-03T16:59:12.036Z,23.30
2023-05-03T17:01:39.074Z,23.39
2023-05-03T17:04:06.740Z,23.46
2023-05-03T17:06:33.765Z,23.47
2023-05-03T17:09:01.033Z,23.43
2023-05-03T17:11:28.233Z,23.44
2023-05-03T17:13:55.198Z,23.40
2023-05-03T17:16:22.921Z,23.36
2023-05-03T17:18:50.824Z,23.29
2023-05-03T17:21:19.242Z,23.35
2023-05-03T17:23:47.118Z,23.21
2023-05-03T17:26:14.580Z,23.20
2023-05-03T17:28:41.790Z,23.17
2023-05-03T17:31:08.853Z,23.19
2023-05-03T17:33:36.351Z,23.20
2023-05-03T17:36:07.121Z,23.20
2023-05-03T17:38:34.892Z,23.20
2023-05-03T17:41:09.224Z,23.12
2023-05-03T17:43:37.329Z,23.11
2023-05-03T17:46:12.152Z,23.06
2023-05-03T17:48:43.498Z,23.00
2023-05-03T17:51:12.711Z,22.96
2023-05-03T17:53:40.982Z,22.99
2023-05-03T17:56:18.965Z,22.97
2023-05-03T17:58:47.346Z,22.87
2023-05-03T18:01:16.131Z,22.82
2023-05-03T18:03:43.383Z,22.83
2023-05-03T18:06:12.382Z,22.85
2023-05-03T18:08:39.525Z,22.78
2023-05-03T18:11:06.480Z,22.76
2023-05-03T18:13:33.534Z,22.67
2023-05-03T18:16:01.076Z,22.54
2023-05-03T18:18:28.127Z,22.52
2023-05-03T18:21:03.819Z,22.48
2023-05-03T18:23:32.075Z,22.48
2023-05-03T18:26:00.011Z,22.43
2023-05-03T18:28:27.695Z,22.38
2023-05-03T18:30:57.776Z,22.26
2023-05-03T18:33:24.779Z,22.26
2023-05-03T18:35:52.998Z,22.16
2023-05-03T18:38:21.748Z,22.14
2023-05-03T18:40:49.685Z,22.09
2023-05-03T18:43:17.101Z,22.05
2023-05-03T18:45:44.598Z,21.98
2023-05-03T18:48:12.090Z,21.95
2023-05-03T18:50:39.584Z,21.94
2023-05-03T18:53:07.014Z,21.89
2023-05-03T18:55:33.936Z,21.84
2023-05-03T18:58:01.550Z,21.80
2023-05-03T19:00:28.623Z,21.78
2023-05-03T19:02:55.649Z,21.72
2023-05-03T19:05:22.957Z,21.73
2023-05-03T19:07:50.118Z,21.66
2023-05-03T19:10:18.254Z,21.62
2023-05-03T19:12:45.417Z,21.61
2023-05-03T19:15:12.529Z,21.56
2023-05-03T19:17:42.458Z,21.58
2023-05-03T19:20:12.827Z,21.56
2023-05-03T19:22:39.855Z,21.53
2023-05-03T19:25:07.358Z,21.49
2023-05-03T19:27:34.425Z,21.46
2023-05-03T19:30:01.742Z,21.46
2023-05-03T19:32:29.493Z,21.47
2023-05-03T19:34:56.643Z,21.47
2023-05-03T19:37:23.712Z,21.43
2023-05-03T19:39:50.842Z,21.42
2023-05-03T19:42:17.907Z,21.40
2023-05-03T19:44:44.976Z,21.35
2023-05-03T19:47:11.884Z,21.30
2023-05-03T19:49:39.350Z,21.32
2023-05-03T19:52:06.324Z,21.30
2023-05-03T19:54:33.494Z,21.30
2023-05-03T19:57:07.669Z,21.33
2023-05-03T19:59:35.024Z,21.33
2023-05-03T20:02:02.154Z,21.31
2023-05-03T20:04:29.197Z,21.31
2023-05-03T20:06:57.378Z,21.27
2023-05-03T20:09:24.657Z,21.22
2023-05-03T20:11:56.713Z,21.21
2023-05-03T20:14:23.759Z,21.25
2023-05-03T20:16:50.786Z,21.25
2023-05-03T20:19:17.825Z,21.22
2023-05-03T20:21:44.877Z,21.24
2023-05-03T20:24:11.812Z,21.25
2023-05-03T20:26:38.915Z,21.22
2023-05-03T20:29:06.133Z,21.20
2023-05-03T20:31:34.092Z,21.19
2023-05-03T20:34:01.504Z,21.14
2023-05-03T20:36:28.518Z,21.15
2023-05-03T20:38:56.600Z,21.15
2023-05-03T20:41:24.149Z,21.16
2023-05-03T20:43:55.142Z,21.16
2023-05-03T20:46:22.163Z,21.15
2023-05-03T20:48:50.067Z,21.15
2023-05-03T20:51:17.426Z,21.12
2023-05-03T20:53:44.733Z,21.12
2023-05-03T20:56:12.628Z,21.10
2023-05-03T20:58:39.602Z,21.07
2023-05-03T21:01:08.124Z,21.03
2023-05-03T21:03:35.686Z,21.06
2023-05-03T21:06:02.948Z,21.05
2023-05-03T21:08:29.996Z,21.02
2023-05-03T21:10:57.096Z,21.01
2023-05-03T21:13:48.523Z,21.01
2023-05-03T21:16:18.022Z,20.95
2023-05-03T21:18:45.077Z,20.93
2023-05-03T21:21:12.253Z,20.90
2023-05-03T21:23:39.508Z,20.88
2023-05-03T21:26:06.547Z,20.90
2023-05-03T21:28:33.792Z,20.89
2023-05-03T21:31:00.938Z,20.89
2023-05-03T21:33:28.030Z,20.91
2023-05-03T21:35:58.738Z,20.88
2023-05-03T21:38:25.878Z,20.88
2023-05-03T21:40:53.969Z,20.87
2023-05-03T21:43:21.473Z,20.87
2023-05-03T21:45:49.036Z,20.87
2023-05-03T21:48:16.140Z,20.86
2023-05-03T21:50:43.712Z,20.84
2023-05-03T21:53:10.602Z,20.81
2023-05-03T21:55:38.614Z,20.84
2023-05-03T21:58:05.601Z,20.86
2023-05-03T22:00:33.019Z,20.86
2023-05-03T22:03:00.296Z,20.86
2023-05-03T22:05:27.693Z,20.87
2023-05-03T22:07:54.807Z,20.87
2023-05-03T22:10:21.858Z,20.88
2023-05-03T22:12:49.047Z,20.83
2023-05-03T22:15:18.673Z,20.79
2023-05-03T22:17:46.102Z,20.74
2023-05-03T22:20:13.237Z,20.79
2023-05-03T22:22:40.171Z,20.82
2023-05-03T22:25:07.507Z,20.85
2023-05-03T22:27:34.428Z,20.85
2023-05-03T22:30:01.584Z,20.82
2023-05-03T22:32:28.890Z,20.85
2023-05-03T22:34:58.669Z,20.87
2023-05-03T22:37:25.625Z,20.83
2023-05-03T22:39:52.684Z,20.86
2023-05-03T22:42:21.544Z,20.86
2023-05-03T22:44:48.528Z,20.88
2023-05-03T22:47:15.842Z,20.87
2023-05-03T22:49:43.732Z,20.87
2023-05-03T22:52:10.832Z,20.87
2023-05-03T22:54:37.917Z,20.85
2023-05-03T22:57:04.972Z,20.87
2023-05-03T22:59:32.075Z,20.87
2023-05-03T23:01:59.209Z,20.87
2023-05-03T23:04:26.317Z,20.86
2023-05-03T23:06:54.202Z,20.85
2023-05-03T23:09:21.561Z,20.84
2023-05-03T23:11:48.864Z,20.84
2023-05-03T23:14:16.170Z,20.83
2023-05-03T23:16:43.099Z,20.80
2023-05-03T23:19:10.839Z,20.79
2023-05-03T23:21:37.918Z,20.78
2023-05-03T23:24:05.339Z,20.76
2023-05-03T23:26:32.248Z,20.73
2023-05-03T23:28:59.849Z,20.71
2023-05-03T23:31:31.610Z,20.70
2023-05-03T23:34:00.272Z,20.73
2023-05-03T23:36:27.922Z,20.73
2023-05-03T23:38:54.852Z,20.73
2023-05-03T23:41:21.965Z,20.71
2023-05-03T23:43:48.965Z,20.69
2023-05-03T23:46:16.034Z,20.69
2023-05-03T23:48:43.224Z,20.67
2023-05-03T23:51:10.214Z,20.63
2023-05-03T23:53:37.838Z,20.61
2023-05-03T23:56:04.935Z,20.56
2023-05-03T23:58:31.989Z,20.55
